sensor_id;sensor_type;location;lat;lon;timestamp;P1;durP1;ratioP1;P2;durP2;ratioP2
41875;SDS011;27555;50.808;4.402;2023-03-12T00:00:15;7.30;;;2.85;;
41875;SDS011;27555;50.808;4.402;2023-03-12T00:02:40;7.72;;;2.97;;
41875;SDS011;27555;50.808;4.402;2023-03-12T00:05:07;9.00;;;2.70;;
41875;SDS011;27555;50.808;4.402;2023-03-12T00:07:32;10.05;;;2.72;;
41875;SDS011;27555;50.808;4.402;2023-03-12T00:10:00;8.52;;;3.20;;
41875;SDS011;27555;50.808;4.402;2023-03-12T00:12:27;6.72;;;2.33;;
41875;SDS011;27555;50.808;4.402;2023-03-12T00:14:52;10.63;;;3.80;;
41875;SDS011;27555;50.808;4.402;2023-03-12T00:17:18;10.13;;;2.90;;
41875;SDS011;27555;50.808;4.402;2023-03-12T00:19:43;8.30;;;3.22;;
41875;SDS011;27555;50.808;4.402;2023-03-12T00:22:09;5.78;;;2.50;;
41875;SDS011;27555;50.808;4.402;2023-03-12T00:24:35;7.88;;;2.45;;
41875;SDS011;27555;50.808;4.402;2023-03-12T00:27:00;8.25;;;3.05;;
41875;SDS011;27555;50.808;4.402;2023-03-12T00:29:26;8.00;;;2.72;;
41875;SDS011;27555;50.808;4.402;2023-03-12T00:31:51;8.27;;;2.97;;
41875;SDS011;27555;50.808;4.402;2023-03-12T00:34:18;14.32;;;2.97;;
41875;SDS011;27555;50.808;4.402;2023-03-12T00:36:43;10.20;;;2.60;;
41875;SDS011;27555;50.808;4.402;2023-03-12T00:39:09;17.00;;;3.33;;
41875;SDS011;27555;50.808;4.402;2023-03-12T00:41:34;5.45;;;2.60;;
41875;SDS011;27555;50.808;4.402;2023-03-12T00:44:00;8.27;;;3.03;;
41875;SDS011;27555;50.808;4.402;2023-03-12T00:46:26;8.75;;;2.88;;
41875;SDS011;27555;50.808;4.402;2023-03-12T00:48:51;8.52;;;2.85;;
41875;SDS011;27555;50.808;4.402;2023-03-12T00:51:17;6.53;;;2.33;;
41875;SDS011;27555;50.808;4.402;2023-03-12T00:53:43;6.18;;;2.40;;
41875;SDS011;27555;50.808;4.402;2023-03-12T00:56:08;10.85;;;2.75;;
41875;SDS011;27555;50.808;4.402;2023-03-12T00:58:34;7.45;;;2.72;;
41875;SDS011;27555;50.808;4.402;2023-03-12T01:01:00;6.88;;;2.50;;
41875;SDS011;27555;50.808;4.402;2023-03-12T01:03:26;6.18;;;2.35;;
41875;SDS011;27555;50.808;4.402;2023-03-12T01:05:51;7.93;;;2.60;;
41875;SDS011;27555;50.808;4.402;2023-03-12T01:08:20;8.30;;;3.03;;
41875;SDS011;27555;50.808;4.402;2023-03-12T01:10:46;6.50;;;2.22;;
41875;SDS011;27555;50.808;4.402;2023-03-12T01:13:12;7.35;;;2.63;;
41875;SDS011;27555;50.808;4.402;2023-03-12T01:15:38;8.10;;;1.98;;
41875;SDS011;27555;50.808;4.402;2023-03-12T01:18:03;6.95;;;2.38;;
41875;SDS011;27555;50.808;4.402;2023-03-12T01:20:29;9.40;;;2.28;;
41875;SDS011;27555;50.808;4.402;2023-03-12T01:22:55;9.23;;;2.10;;
41875;SDS011;27555;50.808;4.402;2023-03-12T01:25:20;7.65;;;2.35;;
41875;SDS011;27555;50.808;4.402;2023-03-12T01:27:46;7.20;;;2.22;;
41875;SDS011;27555;50.808;4.402;2023-03-12T01:30:11;9.52;;;2.30;;
41875;SDS011;27555;50.808;4.402;2023-03-12T01:32:38;6.13;;;2.03;;
41875;SDS011;27555;50.808;4.402;2023-03-12T01:35:03;4.40;;;1.90;;
41875;SDS011;27555;50.808;4.402;2023-03-12T01:37:30;6.97;;;2.13;;
41875;SDS011;27555;50.808;4.402;2023-03-12T01:39:57;11.43;;;3.33;;
41875;SDS011;27555;50.808;4.402;2023-03-12T01:42:22;4.32;;;1.35;;
41875;SDS011;27555;50.808;4.402;2023-03-12T01:44:55;6.13;;;2.58;;
41875;SDS011;27555;50.808;4.402;2023-03-12T01:47:23;8.23;;;1.95;;
41875;SDS011;27555;50.808;4.402;2023-03-12T01:49:50;6.18;;;2.17;;
41875;SDS011;27555;50.808;4.402;2023-03-12T01:52:22;8.85;;;2.13;;
41875;SDS011;27555;50.808;4.402;2023-03-12T01:54:55;8.27;;;2.20;;
41875;SDS011;27555;50.808;4.402;2023-03-12T01:57:30;4.03;;;1.70;;
41875;SDS011;27555;50.808;4.402;2023-03-12T02:00:17;7.07;;;1.67;;
41875;SDS011;27555;50.808;4.402;2023-03-12T02:02:45;7.25;;;2.00;;
41875;SDS011;27555;50.808;4.402;2023-03-12T02:05:24;9.82;;;2.30;;
41875;SDS011;27555;50.808;4.402;2023-03-12T02:07:52;8.50;;;2.22;;
41875;SDS011;27555;50.808;4.402;2023-03-12T02:10:17;8.10;;;1.88;;
41875;SDS011;27555;50.808;4.402;2023-03-12T02:12:43;6.30;;;1.63;;
41875;SDS011;27555;50.808;4.402;2023-03-12T02:15:09;6.13;;;2.10;;
41875;SDS011;27555;50.808;4.402;2023-03-12T02:17:35;12.38;;;2.25;;
41875;SDS011;27555;50.808;4.402;2023-03-12T02:22:50;4.50;;;1.88;;
41875;SDS011;27555;50.808;4.402;2023-03-12T02:25:29;4.38;;;1.88;;
41875;SDS011;27555;50.808;4.402;2023-03-12T02:28:07;3.60;;;2.63;;
41875;SDS011;27555;50.808;4.402;2023-03-12T02:30:36;9.20;;;2.00;;
41875;SDS011;27555;50.808;4.402;2023-03-12T02:33:06;9.43;;;2.50;;
41875;SDS011;27555;50.808;4.402;2023-03-12T02:35:33;16.67;;;2.10;;
41875;SDS011;27555;50.808;4.402;2023-03-12T02:38:00;6.15;;;1.70;;
41875;SDS011;27555;50.808;4.402;2023-03-12T02:40:38;8.85;;;1.95;;
41875;SDS011;27555;50.808;4.402;2023-03-12T02:43:08;5.70;;;1.63;;
41875;SDS011;27555;50.808;4.402;2023-03-12T02:45:35;5.00;;;2.00;;
41875;SDS011;27555;50.808;4.402;2023-03-12T02:48:03;4.22;;;1.85;;
41875;SDS011;27555;50.808;4.402;2023-03-12T02:50:30;9.93;;;2.80;;
41875;SDS011;27555;50.808;4.402;2023-03-12T02:52:56;8.80;;;2.47;;
41875;SDS011;27555;50.808;4.402;2023-03-12T02:55:21;15.77;;;3.13;;
41875;SDS011;27555;50.808;4.402;2023-03-12T02:57:47;6.57;;;1.80;;
41875;SDS011;27555;50.808;4.402;2023-03-12T03:00:13;5.03;;;1.77;;
41875;SDS011;27555;50.808;4.402;2023-03-12T03:02:40;4.47;;;1.40;;
41875;SDS011;27555;50.808;4.402;2023-03-12T03:05:06;6.45;;;1.60;;
41875;SDS011;27555;50.808;4.402;2023-03-12T03:07:33;4.88;;;1.95;;
41875;SDS011;27555;50.808;4.402;2023-03-12T03:09:59;3.42;;;1.42;;
41875;SDS011;27555;50.808;4.402;2023-03-12T03:12:28;5.97;;;1.40;;
41875;SDS011;27555;50.808;4.402;2023-03-12T03:14:54;8.35;;;2.13;;
41875;SDS011;27555;50.808;4.402;2023-03-12T03:17:20;5.93;;;2.15;;
41875;SDS011;27555;50.808;4.402;2023-03-12T03:19:48;7.43;;;2.00;;
41875;SDS011;27555;50.808;4.402;2023-03-12T03:22:14;7.28;;;1.67;;
41875;SDS011;27555;50.808;4.402;2023-03-12T03:24:39;8.18;;;1.90;;
41875;SDS011;27555;50.808;4.402;2023-03-12T03:27:05;6.80;;;1.80;;
41875;SDS011;27555;50.808;4.402;2023-03-12T03:29:31;8.27;;;2.88;;
41875;SDS011;27555;50.808;4.402;2023-03-12T03:31:56;7.68;;;2.05;;
41875;SDS011;27555;50.808;4.402;2023-03-12T03:34:22;9.20;;;2.13;;
41875;SDS011;27555;50.808;4.402;2023-03-12T03:36:48;5.45;;;1.90;;
41875;SDS011;27555;50.808;4.402;2023-03-12T03:39:14;5.55;;;1.98;;
41875;SDS011;27555;50.808;4.402;2023-03-12T03:41:39;9.32;;;2.10;;
41875;SDS011;27555;50.808;4.402;2023-03-12T03:44:05;5.45;;;1.85;;
41875;SDS011;27555;50.808;4.402;2023-03-12T03:46:31;6.13;;;1.85;;
41875;SDS011;27555;50.808;4.402;2023-03-12T03:48:59;9.90;;;2.22;;
41875;SDS011;27555;50.808;4.402;2023-03-12T03:51:26;5.38;;;1.80;;
41875;SDS011;27555;50.808;4.402;2023-03-12T03:53:52;5.15;;;2.40;;
41875;SDS011;27555;50.808;4.402;2023-03-12T03:56:18;4.78;;;1.80;;
41875;SDS011;27555;50.808;4.402;2023-03-12T03:58:43;9.75;;;1.80;;
41875;SDS011;27555;50.808;4.402;2023-03-12T04:01:11;7.20;;;1.85;;
41875;SDS011;27555;50.808;4.402;2023-03-12T04:03:38;8.38;;;2.30;;
41875;SDS011;27555;50.808;4.402;2023-03-12T04:06:04;15.23;;;3.30;;
41875;SDS011;27555;50.808;4.402;2023-03-12T04:08:30;6.50;;;1.92;;
41875;SDS011;27555;50.808;4.402;2023-03-12T04:10:59;8.05;;;2.50;;
41875;SDS011;27555;50.808;4.402;2023-03-12T04:13:40;6.88;;;2.22;;
41875;SDS011;27555;50.808;4.402;2023-03-12T04:16:07;11.32;;;2.25;;
41875;SDS011;27555;50.808;4.402;2023-03-12T04:18:33;6.90;;;2.42;;
41875;SDS011;27555;50.808;4.402;2023-03-12T04:21:00;6.95;;;3.30;;
41875;SDS011;27555;50.808;4.402;2023-03-12T04:23:26;6.43;;;2.17;;
41875;SDS011;27555;50.808;4.402;2023-03-12T04:25:51;9.55;;;2.90;;
41875;SDS011;27555;50.808;4.402;2023-03-12T04:28:17;10.57;;;2.55;;
41875;SDS011;27555;50.808;4.402;2023-03-12T04:30:43;9.02;;;2.83;;
41875;SDS011;27555;50.808;4.402;2023-03-12T04:33:08;8.13;;;2.70;;
41875;SDS011;27555;50.808;4.402;2023-03-12T04:35:34;12.13;;;2.90;;
41875;SDS011;27555;50.808;4.402;2023-03-12T04:38:00;6.38;;;3.10;;
41875;SDS011;27555;50.808;4.402;2023-03-12T04:40:26;6.88;;;2.60;;
41875;SDS011;27555;50.808;4.402;2023-03-12T04:42:51;6.22;;;2.40;;
41875;SDS011;27555;50.808;4.402;2023-03-12T04:45:17;10.43;;;2.78;;
41875;SDS011;27555;50.808;4.402;2023-03-12T04:47:43;5.05;;;2.97;;
41875;SDS011;27555;50.808;4.402;2023-03-12T04:50:09;9.15;;;3.33;;
41875;SDS011;27555;50.808;4.402;2023-03-12T04:52:35;11.00;;;2.83;;
41875;SDS011;27555;50.808;4.402;2023-03-12T04:55:01;8.10;;;3.22;;
41875;SDS011;27555;50.808;4.402;2023-03-12T04:57:26;6.72;;;3.33;;
41875;SDS011;27555;50.808;4.402;2023-03-12T04:59:52;13.43;;;3.75;;
41875;SDS011;27555;50.808;4.402;2023-03-12T05:02:18;5.63;;;3.08;;
41875;SDS011;27555;50.808;4.402;2023-03-12T05:04:43;8.80;;;3.20;;
41875;SDS011;27555;50.808;4.402;2023-03-12T05:07:09;8.18;;;3.22;;
41875;SDS011;27555;50.808;4.402;2023-03-12T05:09:34;8.38;;;3.80;;
41875;SDS011;27555;50.808;4.402;2023-03-12T05:12:00;12.15;;;3.78;;
41875;SDS011;27555;50.808;4.402;2023-03-12T05:14:26;15.30;;;5.68;;
41875;SDS011;27555;50.808;4.402;2023-03-12T05:16:51;7.32;;;3.65;;
41875;SDS011;27555;50.808;4.402;2023-03-12T05:19:17;9.18;;;3.78;;
41875;SDS011;27555;50.808;4.402;2023-03-12T05:21:43;7.60;;;3.63;;
41875;SDS011;27555;50.808;4.402;2023-03-12T05:24:09;8.43;;;3.75;;
41875;SDS011;27555;50.808;4.402;2023-03-12T05:26:35;6.35;;;3.70;;
41875;SDS011;27555;50.808;4.402;2023-03-12T05:29:01;8.80;;;4.35;;
41875;SDS011;27555;50.808;4.402;2023-03-12T05:31:28;7.70;;;4.03;;
41875;SDS011;27555;50.808;4.402;2023-03-12T05:33:57;7.72;;;4.13;;
41875;SDS011;27555;50.808;4.402;2023-03-12T05:36:23;7.55;;;4.50;;
41875;SDS011;27555;50.808;4.402;2023-03-12T05:38:49;11.43;;;4.88;;
41875;SDS011;27555;50.808;4.402;2023-03-12T05:41:22;13.73;;;4.85;;
41875;SDS011;27555;50.808;4.402;2023-03-12T05:43:50;8.23;;;4.35;;
41875;SDS011;27555;50.808;4.402;2023-03-12T05:46:17;13.00;;;4.72;;
41875;SDS011;27555;50.808;4.402;2023-03-12T05:48:42;9.25;;;5.18;;
41875;SDS011;27555;50.808;4.402;2023-03-12T05:51:08;9.57;;;4.85;;
41875;SDS011;27555;50.808;4.402;2023-03-12T05:53:34;11.38;;;5.47;;
41875;SDS011;27555;50.808;4.402;2023-03-12T05:56:03;8.25;;;5.25;;
41875;SDS011;27555;50.808;4.402;2023-03-12T05:58:30;6.90;;;4.50;;
41875;SDS011;27555;50.808;4.402;2023-03-12T06:00:57;11.60;;;5.85;;
41875;SDS011;27555;50.808;4.402;2023-03-12T06:03:22;11.18;;;6.13;;
41875;SDS011;27555;50.808;4.402;2023-03-12T06:05:48;11.57;;;5.53;;
41875;SDS011;27555;50.808;4.402;2023-03-12T06:08:14;14.00;;;6.63;;
41875;SDS011;27555;50.808;4.402;2023-03-12T06:10:40;14.13;;;6.70;;
41875;SDS011;27555;50.808;4.402;2023-03-12T06:13:06;10.90;;;6.82;;
41875;SDS011;27555;50.808;4.402;2023-03-12T06:15:32;12.63;;;6.75;;
41875;SDS011;27555;50.808;4.402;2023-03-12T06:17:58;9.75;;;6.55;;
41875;SDS011;27555;50.808;4.402;2023-03-12T06:20:23;15.10;;;6.65;;
41875;SDS011;27555;50.808;4.402;2023-03-12T06:22:49;11.02;;;7.47;;
41875;SDS011;27555;50.808;4.402;2023-03-12T06:25:14;22.17;;;10.68;;
41875;SDS011;27555;50.808;4.402;2023-03-12T06:27:40;13.60;;;6.38;;
41875;SDS011;27555;50.808;4.402;2023-03-12T06:30:06;14.88;;;7.53;;
41875;SDS011;27555;50.808;4.402;2023-03-12T06:32:32;16.73;;;7.88;;
41875;SDS011;27555;50.808;4.402;2023-03-12T06:34:58;14.52;;;7.63;;
41875;SDS011;27555;50.808;4.402;2023-03-12T06:37:28;18.95;;;8.75;;
41875;SDS011;27555;50.808;4.402;2023-03-12T06:39:53;15.45;;;7.00;;
41875;SDS011;27555;50.808;4.402;2023-03-12T06:42:19;12.30;;;7.43;;
41875;SDS011;27555;50.808;4.402;2023-03-12T06:44:46;12.07;;;7.22;;
41875;SDS011;27555;50.808;4.402;2023-03-12T06:47:12;19.65;;;7.80;;
41875;SDS011;27555;50.808;4.402;2023-03-12T06:49:38;11.02;;;7.10;;
41875;SDS011;27555;50.808;4.402;2023-03-12T06:52:03;16.48;;;7.38;;
41875;SDS011;27555;50.808;4.402;2023-03-12T06:54:29;15.95;;;7.30;;
41875;SDS011;27555;50.808;4.402;2023-03-12T06:56:55;14.77;;;7.90;;
41875;SDS011;27555;50.808;4.402;2023-03-12T06:59:23;18.20;;;8.38;;
41875;SDS011;27555;50.808;4.402;2023-03-12T07:01:49;19.30;;;8.57;;
41875;SDS011;27555;50.808;4.402;2023-03-12T07:04:14;19.17;;;8.15;;
41875;SDS011;27555;50.808;4.402;2023-03-12T07:06:40;15.57;;;8.20;;
41875;SDS011;27555;50.808;4.402;2023-03-12T07:09:06;19.13;;;8.55;;
41875;SDS011;27555;50.808;4.402;2023-03-12T07:11:31;23.55;;;10.07;;
41875;SDS011;27555;50.808;4.402;2023-03-12T07:13:57;20.38;;;8.30;;
41875;SDS011;27555;50.808;4.402;2023-03-12T07:16:23;15.23;;;8.27;;
41875;SDS011;27555;50.808;4.402;2023-03-12T07:18:48;18.92;;;8.68;;
41875;SDS011;27555;50.808;4.402;2023-03-12T07:21:14;17.60;;;8.35;;
41875;SDS011;27555;50.808;4.402;2023-03-12T07:23:46;19.30;;;9.25;;
41875;SDS011;27555;50.808;4.402;2023-03-12T07:26:13;21.50;;;9.25;;
41875;SDS011;27555;50.808;4.402;2023-03-12T07:28:38;21.30;;;9.55;;
41875;SDS011;27555;50.808;4.402;2023-03-12T07:31:04;24.13;;;9.43;;
41875;SDS011;27555;50.808;4.402;2023-03-12T07:33:30;24.27;;;9.25;;
41875;SDS011;27555;50.808;4.402;2023-03-12T07:35:56;24.52;;;9.88;;
41875;SDS011;27555;50.808;4.402;2023-03-12T07:38:22;37.95;;;10.95;;
41875;SDS011;27555;50.808;4.402;2023-03-12T07:40:54;21.60;;;9.45;;
41875;SDS011;27555;50.808;4.402;2023-03-12T07:43:21;26.88;;;8.70;;
41875;SDS011;27555;50.808;4.402;2023-03-12T07:45:47;26.38;;;9.52;;
41875;SDS011;27555;50.808;4.402;2023-03-12T07:48:13;27.38;;;9.75;;
41875;SDS011;27555;50.808;4.402;2023-03-12T07:50:40;29.85;;;10.23;;
41875;SDS011;27555;50.808;4.402;2023-03-12T07:53:05;33.65;;;10.20;;
41875;SDS011;27555;50.808;4.402;2023-03-12T07:55:32;27.73;;;9.73;;
41875;SDS011;27555;50.808;4.402;2023-03-12T07:57:58;35.88;;;10.82;;
41875;SDS011;27555;50.808;4.402;2023-03-12T08:00:25;36.72;;;10.35;;
41875;SDS011;27555;50.808;4.402;2023-03-12T08:02:52;58.53;;;12.05;;
41875;SDS011;27555;50.808;4.402;2023-03-12T08:05:18;54.05;;;11.77;;
41875;SDS011;27555;50.808;4.402;2023-03-12T08:07:43;59.78;;;13.80;;
41875;SDS011;27555;50.808;4.402;2023-03-12T08:10:09;47.65;;;13.30;;
41875;SDS011;27555;50.808;4.402;2023-03-12T08:12:36;52.13;;;13.25;;
41875;SDS011;27555;50.808;4.402;2023-03-12T08:15:05;60.45;;;12.90;;
41875;SDS011;27555;50.808;4.402;2023-03-12T08:17:32;60.53;;;12.38;;
41875;SDS011;27555;50.808;4.402;2023-03-12T08:19:58;60.65;;;14.98;;
41875;SDS011;27555;50.808;4.402;2023-03-12T08:22:24;73.25;;;15.90;;
41875;SDS011;27555;50.808;4.402;2023-03-12T08:24:49;56.00;;;14.63;;
41875;SDS011;27555;50.808;4.402;2023-03-12T08:27:15;66.63;;;14.63;;
41875;SDS011;27555;50.808;4.402;2023-03-12T08:29:40;63.42;;;14.05;;
41875;SDS011;27555;50.808;4.402;2023-03-12T08:32:07;59.63;;;13.57;;
41875;SDS011;27555;50.808;4.402;2023-03-12T08:34:34;73.63;;;15.85;;
41875;SDS011;27555;50.808;4.402;2023-03-12T08:37:00;68.90;;;14.13;;
41875;SDS011;27555;50.808;4.402;2023-03-12T08:39:27;60.60;;;13.50;;
41875;SDS011;27555;50.808;4.402;2023-03-12T08:41:53;71.35;;;15.38;;
41875;SDS011;27555;50.808;4.402;2023-03-12T08:44:19;67.68;;;15.75;;
41875;SDS011;27555;50.808;4.402;2023-03-12T08:46:45;72.78;;;13.43;;
41875;SDS011;27555;50.808;4.402;2023-03-12T08:49:11;75.95;;;13.88;;
41875;SDS011;27555;50.808;4.402;2023-03-12T08:51:37;63.63;;;12.95;;
41875;SDS011;27555;50.808;4.402;2023-03-12T08:54:02;83.65;;;15.30;;
41875;SDS011;27555;50.808;4.402;2023-03-12T08:56:29;77.65;;;12.85;;
41875;SDS011;27555;50.808;4.402;2023-03-12T08:58:56;62.92;;;13.55;;
41875;SDS011;27555;50.808;4.402;2023-03-12T09:01:22;58.42;;;13.55;;
41875;SDS011;27555;50.808;4.402;2023-03-12T09:03:48;65.80;;;13.63;;
41875;SDS011;27555;50.808;4.402;2023-03-12T09:06:16;56.33;;;12.13;;
41875;SDS011;27555;50.808;4.402;2023-03-12T09:08:43;60.08;;;11.43;;
41875;SDS011;27555;50.808;4.402;2023-03-12T09:11:10;72.57;;;12.88;;
41875;SDS011;27555;50.808;4.402;2023-03-12T09:13:37;65.07;;;11.80;;
41875;SDS011;27555;50.808;4.402;2023-03-12T09:16:03;54.90;;;11.00;;
41875;SDS011;27555;50.808;4.402;2023-03-12T09:18:29;54.30;;;10.70;;
41875;SDS011;27555;50.808;4.402;2023-03-12T09:20:55;60.92;;;10.73;;
41875;SDS011;27555;50.808;4.402;2023-03-12T09:23:22;56.92;;;10.90;;
41875;SDS011;27555;50.808;4.402;2023-03-12T09:25:48;52.97;;;11.70;;
41875;SDS011;27555;50.808;4.402;2023-03-12T09:28:14;63.63;;;13.73;;
41875;SDS011;27555;50.808;4.402;2023-03-12T09:30:40;61.63;;;11.10;;
41875;SDS011;27555;50.808;4.402;2023-03-12T09:33:06;52.13;;;10.18;;
41875;SDS011;27555;50.808;4.402;2023-03-12T09:35:31;57.55;;;10.80;;
41875;SDS011;27555;50.808;4.402;2023-03-12T09:37:57;55.10;;;10.02;;
41875;SDS011;27555;50.808;4.402;2023-03-12T09:40:24;48.90;;;10.10;;
41875;SDS011;27555;50.808;4.402;2023-03-12T09:45:44;72.75;;;13.27;;
41875;SDS011;27555;50.808;4.402;2023-03-12T09:48:18;53.22;;;10.98;;
41875;SDS011;27555;50.808;4.402;2023-03-12T09:50:54;57.00;;;11.18;;
41875;SDS011;27555;50.808;4.402;2023-03-12T09:55:57;39.28;;;8.80;;
41875;SDS011;27555;50.808;4.402;2023-03-12T09:58:27;52.95;;;10.90;;
41875;SDS011;27555;50.808;4.402;2023-03-12T10:01:06;57.63;;;9.40;;
41875;SDS011;27555;50.808;4.402;2023-03-12T10:06:14;47.90;;;9.55;;
41875;SDS011;27555;50.808;4.402;2023-03-12T10:27:23;58.78;;;10.55;;
41875;SDS011;27555;50.808;4.402;2023-03-12T10:29:52;45.63;;;9.32;;
41875;SDS011;27555;50.808;4.402;2023-03-12T10:32:24;56.67;;;8.43;;
41875;SDS011;27555;50.808;4.402;2023-03-12T10:35:11;49.45;;;9.48;;
41875;SDS011;27555;50.808;4.402;2023-03-12T10:37:44;46.63;;;7.90;;
41875;SDS011;27555;50.808;4.402;2023-03-12T10:40:13;48.33;;;8.15;;
41875;SDS011;27555;50.808;4.402;2023-03-12T10:42:40;47.05;;;7.68;;
41875;SDS011;27555;50.808;4.402;2023-03-12T10:50:12;39.72;;;8.57;;
41875;SDS011;27555;50.808;4.402;2023-03-12T10:52:38;38.17;;;7.80;;
41875;SDS011;27555;50.808;4.402;2023-03-12T10:55:38;36.78;;;8.30;;
41875;SDS011;27555;50.808;4.402;2023-03-12T10:57:56;47.35;;;8.95;;
41875;SDS011;27555;50.808;4.402;2023-03-12T11:00:23;43.30;;;8.57;;
41875;SDS011;27555;50.808;4.402;2023-03-12T11:03:01;44.42;;;9.90;;
41875;SDS011;27555;50.808;4.402;2023-03-12T11:05:29;40.58;;;7.95;;
41875;SDS011;27555;50.808;4.402;2023-03-12T11:08:00;46.70;;;8.32;;
41875;SDS011;27555;50.808;4.402;2023-03-12T11:10:38;38.97;;;7.47;;
41875;SDS011;27555;50.808;4.402;2023-03-12T11:15:59;49.60;;;11.30;;
41875;SDS011;27555;50.808;4.402;2023-03-12T11:18:27;37.20;;;8.00;;
41875;SDS011;27555;50.808;4.402;2023-03-12T11:21:17;39.00;;;8.50;;
41875;SDS011;27555;50.808;4.402;2023-03-12T11:23:43;50.08;;;8.95;;
41875;SDS011;27555;50.808;4.402;2023-03-12T11:26:33;39.45;;;8.20;;
41875;SDS011;27555;50.808;4.402;2023-03-12T11:29:28;42.92;;;7.85;;
41875;SDS011;27555;50.808;4.402;2023-03-12T11:31:57;48.85;;;10.02;;
41875;SDS011;27555;50.808;4.402;2023-03-12T11:34:54;45.13;;;8.85;;
41875;SDS011;27555;50.808;4.402;2023-03-12T11:37:24;48.72;;;9.05;;
41875;SDS011;27555;50.808;4.402;2023-03-12T11:46:05;38.85;;;6.22;;
41875;SDS011;27555;50.808;4.402;2023-03-12T12:27:27;42.45;;;8.05;;
41875;SDS011;27555;50.808;4.402;2023-03-12T12:33:06;37.05;;;6.40;;
41875;SDS011;27555;50.808;4.402;2023-03-12T12:35:42;51.95;;;9.05;;
41875;SDS011;27555;50.808;4.402;2023-03-12T12:40:42;37.97;;;7.97;;
41875;SDS011;27555;50.808;4.402;2023-03-12T12:43:22;42.58;;;8.68;;
41875;SDS011;27555;50.808;4.402;2023-03-12T12:45:54;40.92;;;8.73;;
41875;SDS011;27555;50.808;4.402;2023-03-12T12:50:57;41.75;;;7.55;;
41875;SDS011;27555;50.808;4.402;2023-03-12T12:56:24;42.63;;;8.18;;
41875;SDS011;27555;50.808;4.402;2023-03-12T12:59:08;35.35;;;8.07;;
41875;SDS011;27555;50.808;4.402;2023-03-12T13:01:41;35.10;;;7.82;;
41875;SDS011;27555;50.808;4.402;2023-03-12T13:04:11;46.63;;;8.88;;
41875;SDS011;27555;50.808;4.402;2023-03-12T13:09:42;43.95;;;7.53;;
41875;SDS011;27555;50.808;4.402;2023-03-12T13:14:57;33.95;;;6.65;;
41875;SDS011;27555;50.808;4.402;2023-03-12T13:22:38;43.67;;;7.07;;
41875;SDS011;27555;50.808;4.402;2023-03-12T13:28:32;32.10;;;7.45;;
41875;SDS011;27555;50.808;4.402;2023-03-12T13:33:56;35.47;;;6.93;;
41875;SDS011;27555;50.808;4.402;2023-03-12T13:36:24;36.42;;;6.30;;
41875;SDS011;27555;50.808;4.402;2023-03-12T13:49:44;32.42;;;7.22;;
41875;SDS011;27555;50.808;4.402;2023-03-12T13:54:46;35.47;;;6.22;;
41875;SDS011;27555;50.808;4.402;2023-03-12T13:59:49;32.42;;;6.30;;
41875;SDS011;27555;50.808;4.402;2023-03-12T14:02:26;30.98;;;5.20;;
41875;SDS011;27555;50.808;4.402;2023-03-12T14:05:02;30.85;;;5.32;;
41875;SDS011;27555;50.808;4.402;2023-03-12T14:12:58;35.42;;;5.63;;
41875;SDS011;27555;50.808;4.402;2023-03-12T14:18:28;32.17;;;6.03;;
41875;SDS011;27555;50.808;4.402;2023-03-12T14:23:26;31.65;;;5.32;;
41875;SDS011;27555;50.808;4.402;2023-03-12T14:25:59;20.73;;;4.85;;
41875;SDS011;27555;50.808;4.402;2023-03-12T14:28:26;35.20;;;5.97;;
41875;SDS011;27555;50.808;4.402;2023-03-12T14:33:24;26.55;;;4.43;;
41875;SDS011;27555;50.808;4.402;2023-03-12T14:36:05;24.02;;;4.63;;
41875;SDS011;27555;50.808;4.402;2023-03-12T14:38:39;36.40;;;6.22;;
41875;SDS011;27555;50.808;4.402;2023-03-12T14:43:40;29.92;;;5.43;;
41875;SDS011;27555;50.808;4.402;2023-03-12T14:46:20;24.90;;;4.85;;
41875;SDS011;27555;50.808;4.402;2023-03-12T14:48:48;25.55;;;4.75;;
41875;SDS011;27555;50.808;4.402;2023-03-12T14:51:20;30.05;;;5.32;;
41875;SDS011;27555;50.808;4.402;2023-03-12T14:53:47;26.40;;;4.22;;
41875;SDS011;27555;50.808;4.402;2023-03-12T14:56:24;28.77;;;6.13;;
41875;SDS011;27555;50.808;4.402;2023-03-12T14:58:55;24.30;;;4.18;;
41875;SDS011;27555;50.808;4.402;2023-03-12T15:01:23;35.80;;;6.20;;
41875;SDS011;27555;50.808;4.402;2023-03-12T15:06:36;26.58;;;5.05;;
41875;SDS011;27555;50.808;4.402;2023-03-12T15:09:24;36.83;;;5.45;;
41875;SDS011;27555;50.808;4.402;2023-03-12T15:11:56;26.70;;;5.28;;
41875;SDS011;27555;50.808;4.402;2023-03-12T15:14:22;25.58;;;4.05;;
41875;SDS011;27555;50.808;4.402;2023-03-12T15:16:51;29.00;;;6.55;;
41875;SDS011;27555;50.808;4.402;2023-03-12T15:19:31;30.55;;;5.35;;
41875;SDS011;27555;50.808;4.402;2023-03-12T15:21:59;28.52;;;5.30;;
41875;SDS011;27555;50.808;4.402;2023-03-12T15:24:36;24.15;;;4.80;;
41875;SDS011;27555;50.808;4.402;2023-03-12T15:27:20;30.85;;;4.45;;
41875;SDS011;27555;50.808;4.402;2023-03-12T15:29:50;45.08;;;6.63;;
41875;SDS011;27555;50.808;4.402;2023-03-12T15:32:16;29.70;;;4.25;;
41875;SDS011;27555;50.808;4.402;2023-03-12T15:34:44;21.35;;;4.72;;
41875;SDS011;27555;50.808;4.402;2023-03-12T15:37:28;32.55;;;4.68;;
41875;SDS011;27555;50.808;4.402;2023-03-12T15:40:19;15.73;;;4.15;;
41875;SDS011;27555;50.808;4.402;2023-03-12T15:42:51;31.67;;;5.45;;
41875;SDS011;27555;50.808;4.402;2023-03-12T15:45:22;32.20;;;5.13;;
41875;SDS011;27555;50.808;4.402;2023-03-12T15:48:00;27.98;;;4.32;;
41875;SDS011;27555;50.808;4.402;2023-03-12T15:50:30;30.00;;;5.05;;
41875;SDS011;27555;50.808;4.402;2023-03-12T15:55:35;35.83;;;6.25;;
41875;SDS011;27555;50.808;4.402;2023-03-12T15:58:02;30.20;;;5.07;;
41875;SDS011;27555;50.808;4.402;2023-03-12T16:00:47;27.20;;;5.88;;
41875;SDS011;27555;50.808;4.402;2023-03-12T16:03:17;22.52;;;4.25;;
41875;SDS011;27555;50.808;4.402;2023-03-12T16:05:44;24.67;;;5.35;;
41875;SDS011;27555;50.808;4.402;2023-03-12T16:08:14;23.77;;;4.88;;
41875;SDS011;27555;50.808;4.402;2023-03-12T16:10:44;27.30;;;6.50;;
41875;SDS011;27555;50.808;4.402;2023-03-12T16:13:15;35.75;;;6.13;;
41875;SDS011;27555;50.808;4.402;2023-03-12T16:15:43;28.15;;;5.18;;
41875;SDS011;27555;50.808;4.402;2023-03-12T16:18:12;32.72;;;5.03;;
41875;SDS011;27555;50.808;4.402;2023-03-12T16:20:43;26.48;;;5.50;;
41875;SDS011;27555;50.808;4.402;2023-03-12T16:23:10;28.88;;;6.25;;
41875;SDS011;27555;50.808;4.402;2023-03-12T16:25:36;25.65;;;5.07;;
41875;SDS011;27555;50.808;4.402;2023-03-12T16:28:02;34.15;;;5.68;;
41875;SDS011;27555;50.808;4.402;2023-03-12T16:30:31;39.10;;;5.70;;
41875;SDS011;27555;50.808;4.402;2023-03-12T16:32:59;32.65;;;4.60;;
41875;SDS011;27555;50.808;4.402;2023-03-12T16:35:25;27.75;;;5.05;;
41875;SDS011;27555;50.808;4.402;2023-03-12T16:37:52;30.23;;;4.82;;
41875;SDS011;27555;50.808;4.402;2023-03-12T16:40:18;33.05;;;5.80;;
41875;SDS011;27555;50.808;4.402;2023-03-12T16:42:45;32.30;;;5.63;;
41875;SDS011;27555;50.808;4.402;2023-03-12T16:45:14;34.35;;;6.55;;
41875;SDS011;27555;50.808;4.402;2023-03-12T16:47:41;27.27;;;4.72;;
41875;SDS011;27555;50.808;4.402;2023-03-12T16:52:41;29.02;;;5.97;;
41875;SDS011;27555;50.808;4.402;2023-03-12T16:55:07;26.75;;;5.28;;
41875;SDS011;27555;50.808;4.402;2023-03-12T16:57:35;28.85;;;5.50;;
41875;SDS011;27555;50.808;4.402;2023-03-12T17:02:34;30.80;;;4.70;;
41875;SDS011;27555;50.808;4.402;2023-03-12T17:05:00;22.67;;;3.63;;
41875;SDS011;27555;50.808;4.402;2023-03-12T17:07:26;34.95;;;4.60;;
41875;SDS011;27555;50.808;4.402;2023-03-12T17:09:51;32.13;;;5.13;;
41875;SDS011;27555;50.808;4.402;2023-03-12T17:12:36;33.42;;;6.00;;
41875;SDS011;27555;50.808;4.402;2023-03-12T17:15:07;36.97;;;7.10;;